Blue Mountain, Mississippi
Current Conditions -  °F | °C
As of 8:55 AM on Saturday 01 Nov 2014 (Local Time) from KCRX Reporting Station
Clear Clear  
Wind Chill: 30°   Ceiling: Unl
Heat Index: 37°   Visibility: 10mi
Dew Point: 25°   Wind: 12mph
Humidity: 60%   Direction: 330°NNW
Pressure: 30.35"   Gusts: 20mph
Location:  34.67°N, 89.03°W
Report Text: KCRX 011355Z AUTO 33010G17KT 300V360 10SM CLR 03/M04 A3035 RMK AO2
Loading
Personal Weather Stations






























Interactive Weather Map
Tropical Storm Tracking
New forecast layout! Learn more

10-Day Weather Forecast

Advertisements
Track Severe Weather on mobile